Time;durP1;ratioP1;P1;durP2;ratioP2;P2;SDS_P1;SDS_P2;PMS_P1;PMS_P2;Temp;Humidity;BMP_temperature;BMP_pressure;BME280_temperature;BME280_humidity;BME280_pressure;Samples;Min_cycle;Max_cycle;Signal;HPM_P1;HPM_P2
2021/11/25 00:00:20;;;;;;;28.58;14.00;;;1.60;15.60;;;;;;5084897;28;20055;-63
2021/11/25 00:02:49;;;;;;;24.42;12.70;;;1.50;15.70;;;;;;5082710;28;20069;-66
2021/11/25 00:05:22;;;;;;;27.85;13.73;;;1.50;15.90;;;;;;5081838;28;20044;-65
2021/11/25 00:07:56;;;;;;;27.17;13.32;;;1.50;15.60;;;;;;5080211;28;20094;-65
2021/11/25 00:10:24;;;;;;;25.23;13.32;;;1.50;16.10;;;;;;5087046;28;20135;-65
2021/11/25 00:12:55;;;;;;;31.95;13.85;;;1.50;16.20;;;;;;5081276;28;20494;-64
2021/11/25 00:15:23;;;;;;;26.00;13.55;;;1.50;16.30;;;;;;5081970;27;20426;-64
2021/11/25 00:17:54;;;;;;;29.00;14.60;;;1.50;16.50;;;;;;5082700;28;20040;-65
2021/11/25 00:20:22;;;;;;;30.92;13.93;;;1.50;16.10;;;;;;5083193;28;20079;-65
2021/11/25 00:22:52;;;;;;;24.50;13.07;;;1.40;16.40;;;;;;5083772;28;20701;-64
2021/11/25 00:25:21;;;;;;;27.50;13.05;;;1.50;16.40;;;;;;5078511;28;20044;-64
2021/11/25 00:27:49;;;;;;;27.77;13.70;;;1.50;15.90;;;;;;5082773;28;20052;-63
2021/11/25 00:30:21;;;;;;;28.75;13.77;;;1.50;16.10;;;;;;5084621;28;20131;-64
2021/11/25 00:32:53;;;;;;;26.25;13.55;;;1.60;16.30;;;;;;5077149;28;20078;-64
2021/11/25 00:35:26;;;;;;;25.58;12.38;;;1.60;15.90;;;;;;5080683;28;20047;-65
2021/11/25 00:37:57;;;;;;;25.65;13.27;;;1.70;16.10;;;;;;5084557;28;20146;-64
2021/11/25 00:40:29;;;;;;;27.88;13.35;;;1.60;15.40;;;;;;5081272;28;20044;-65
2021/11/25 00:43:00;;;;;;;24.95;13.80;;;1.50;16.20;;;;;;5073286;28;20423;-64
2021/11/25 00:45:28;;;;;;;27.88;14.43;;;1.50;16.60;;;;;;5080933;28;20040;-65
2021/11/25 00:47:56;;;;;;;25.98;13.05;;;1.50;16.40;;;;;;5083252;28;20146;-64
2021/11/25 00:50:24;;;;;;;27.33;13.10;;;1.50;16.70;;;;;;5085999;28;20302;-64
2021/11/25 00:52:56;;;;;;;27.95;13.05;;;1.50;16.40;;;;;;5080459;28;20625;-65
2021/11/25 00:55:26;;;;;;;28.27;13.45;;;1.50;16.60;;;;;;5077017;28;20041;-65
2021/11/25 00:57:55;;;;;;;26.73;13.85;;;1.50;16.60;;;;;;5087427;28;20135;-65
2021/11/25 01:00:24;;;;;;;26.05;12.63;;;1.40;16.50;;;;;;5083070;28;20123;-65
2021/11/25 01:02:54;;;;;;;27.83;13.82;;;1.50;16.80;;;;;;5082745;28;20596;-65
2021/11/25 01:05:23;;;;;;;27.08;13.05;;;1.60;16.80;;;;;;5075958;28;20089;-65
2021/11/25 01:07:52;;;;;;;27.40;13.52;;;1.60;16.40;;;;;;5077808;28;20044;-65
2021/11/25 01:10:24;;;;;;;24.65;13.30;;;1.60;16.20;;;;;;5079484;28;20128;-65
2021/11/25 01:12:58;;;;;;;25.67;14.07;;;1.60;16.30;;;;;;5083503;28;20083;-65
2021/11/25 01:15:34;;;;;;;24.50;13.85;;;1.50;16.60;;;;;;5079731;28;20086;-65
2021/11/25 01:18:05;;;;;;;21.45;11.82;;;1.60;16.70;;;;;;5083744;28;20094;-65
2021/11/25 01:20:36;;;;;;;24.60;13.43;;;1.50;16.80;;;;;;5083724;28;20613;-65
2021/11/25 01:23:11;;;;;;;26.92;13.75;;;1.50;16.90;;;;;;5081118;28;20037;-64
2021/11/25 01:25:41;;;;;;;22.85;13.32;;;1.40;17.30;;;;;;5080413;28;20515;-64
2021/11/25 01:28:13;;;;;;;25.23;12.98;;;1.50;17.40;;;;;;5073793;28;20410;-64
2021/11/25 01:30:47;;;;;;;26.35;13.35;;;1.50;17.20;;;;;;5079813;28;20408;-65
2021/11/25 01:33:19;;;;;;;24.13;12.52;;;1.50;17.40;;;;;;5083248;28;20067;-64
2021/11/25 01:35:52;;;;;;;23.88;13.38;;;1.60;17.40;;;;;;5081373;28;20028;-64
2021/11/25 01:38:21;;;;;;;24.98;12.75;;;1.60;16.80;;;;;;5084656;28;20151;-65
2021/11/25 01:40:50;;;;;;;22.38;12.60;;;1.50;16.60;;;;;;5087118;28;20042;-64
2021/11/25 01:43:22;;;;;;;24.65;12.93;;;1.50;17.10;;;;;;5084299;28;20050;-64
2021/11/25 01:45:51;;;;;;;26.10;13.05;;;1.50;17.20;;;;;;5081856;28;20135;-65
2021/11/25 01:48:21;;;;;;;25.15;12.50;;;1.50;17.40;;;;;;5089485;28;20051;-65
2021/11/25 01:50:55;;;;;;;25.25;12.95;;;1.60;17.40;;;;;;5085711;28;20036;-65
2021/11/25 01:53:27;;;;;;;23.75;12.45;;;1.60;17.40;;;;;;5084416;28;20051;-65
2021/11/25 01:55:55;;;;;;;22.90;12.52;;;1.60;17.20;;;;;;5083239;28;20068;-65
2021/11/25 01:58:24;;;;;;;22.60;12.90;;;1.70;16.80;;;;;;5083245;28;20048;-66
2021/11/25 02:00:57;;;;;;;23.65;12.90;;;1.70;17.00;;;;;;5086111;28;20465;-65
2021/11/25 02:03:28;;;;;;;24.67;12.98;;;1.60;17.20;;;;;;5078783;28;20268;-65
2021/11/25 02:06:00;;;;;;;22.63;12.32;;;1.60;17.40;;;;;;5080135;28;20052;-64
2021/11/25 02:08:30;;;;;;;22.58;12.50;;;1.70;17.30;;;;;;5089574;28;20044;-64
2021/11/25 02:11:01;;;;;;;25.88;13.32;;;1.60;17.10;;;;;;5085145;28;20068;-65
2021/11/25 02:13:31;;;;;;;23.10;12.93;;;1.50;17.40;;;;;;5082121;28;20048;-65
2021/11/25 02:15:59;;;;;;;23.88;12.70;;;1.60;17.40;;;;;;5086816;28;20032;-65
2021/11/25 02:18:29;;;;;;;22.85;12.60;;;1.60;17.40;;;;;;5082303;28;20270;-64
2021/11/25 02:21:02;;;;;;;24.70;12.75;;;1.70;17.50;;;;;;5085852;28;20809;-64
2021/11/25 02:23:30;;;;;;;24.25;12.73;;;1.70;17.20;;;;;;5085091;28;20127;-65
2021/11/25 02:26:00;;;;;;;22.92;12.32;;;1.80;16.90;;;;;;5080622;28;20542;-65
2021/11/25 02:28:33;;;;;;;22.85;12.15;;;1.60;16.80;;;;;;5085757;28;20051;-65
2021/11/25 02:31:02;;;;;;;23.58;12.07;;;1.60;17.40;;;;;;5087269;28;20212;-64
2021/11/25 02:33:32;;;;;;;26.23;13.38;;;1.70;17.50;;;;;;5082545;28;20040;-65
2021/11/25 02:36:01;;;;;;;23.42;12.40;;;1.60;17.10;;;;;;5081520;28;20560;-64
2021/11/25 02:38:30;;;;;;;26.63;13.07;;;1.60;17.40;;;;;;5086873;28;20047;-64
2021/11/25 02:40:58;;;;;;;26.15;13.15;;;1.70;17.50;;;;;;5083196;28;20054;-64
2021/11/25 02:43:29;;;;;;;23.73;12.38;;;1.70;17.50;;;;;;5062891;28;20059;-64
2021/11/25 02:46:02;;;;;;;22.30;12.95;;;1.70;17.50;;;;;;5059123;28;20043;-64
2021/11/25 02:48:39;;;;;;;23.60;13.32;;;1.70;17.50;;;;;;5062222;28;20073;-65
2021/11/25 02:51:10;;;;;;;26.92;13.07;;;1.70;17.50;;;;;;5059993;28;20554;-65
2021/11/25 02:53:38;;;;;;;23.80;12.85;;;1.60;17.40;;;;;;5066016;28;20491;-64
2021/11/25 02:56:09;;;;;;;25.98;13.07;;;1.60;17.40;;;;;;5060136;28;20167;-64
2021/11/25 02:58:37;;;;;;;30.85;13.68;;;1.60;17.90;;;;;;5063867;28;20067;-64
2021/11/25 03:01:08;;;;;;;26.33;13.30;;;1.60;18.10;;;;;;5066255;28;20056;-65
2021/11/25 03:03:37;;;;;;;24.45;13.77;;;1.60;18.40;;;;;;5059438;28;20072;-65
2021/11/25 03:06:05;;;;;;;26.13;13.98;;;1.50;18.50;;;;;;5062941;28;20045;-64
2021/11/25 03:08:35;;;;;;;28.00;14.20;;;1.60;19.10;;;;;;5062772;28;20044;-64
2021/11/25 03:11:05;;;;;;;26.23;13.75;;;1.60;18.60;;;;;;5063592;28;20052;-64
2021/11/25 03:13:38;;;;;;;25.40;12.75;;;1.60;18.80;;;;;;5062408;28;20041;-65
2021/11/25 03:16:09;;;;;;;26.08;13.10;;;1.50;19.50;;;;;;5065830;28;20050;-65
2021/11/25 03:18:41;;;;;;;27.27;13.50;;;1.50;19.50;;;;;;5062969;28;20132;-65
2021/11/25 03:21:10;;;;;;;26.58;13.30;;;1.50;20.00;;;;;;5069372;28;20182;-65
2021/11/25 03:23:41;;;;;;;26.90;14.02;;;1.60;19.60;;;;;;5083169;28;20047;-65
2021/11/25 03:26:12;;;;;;;27.15;13.68;;;1.60;19.50;;;;;;5079095;28;20076;-65
2021/11/25 03:28:43;;;;;;;26.58;13.65;;;1.60;18.90;;;;;;5087605;28;20509;-65
2021/11/25 03:31:12;;;;;;;26.73;14.13;;;1.60;19.00;;;;;;5081225;28;20051;-66
2021/11/25 03:33:41;;;;;;;26.30;13.95;;;1.70;18.90;;;;;;5081200;28;20043;-64
2021/11/25 03:36:10;;;;;;;21.83;12.05;;;1.70;18.00;;;;;;5081313;28;20167;-64
2021/11/25 03:38:39;;;;;;;25.45;13.90;;;1.60;18.40;;;;;;5083502;28;20557;-64
2021/11/25 03:41:11;;;;;;;25.45;13.27;;;1.60;18.50;;;;;;5085638;28;20044;-64
2021/11/25 03:43:42;;;;;;;27.38;13.75;;;1.60;18.90;;;;;;5083135;28;20044;-64
2021/11/25 03:46:10;;;;;;;25.42;13.65;;;1.70;18.90;;;;;;5081778;28;20040;-64
2021/11/25 03:48:39;;;;;;;25.55;13.43;;;1.70;18.10;;;;;;5084689;28;20487;-64
2021/11/25 03:51:09;;;;;;;27.90;13.07;;;1.70;17.60;;;;;;5083972;28;20071;-65
2021/11/25 03:53:43;;;;;;;24.02;13.10;;;1.70;18.00;;;;;;5078989;28;20089;-65
2021/11/25 03:56:15;;;;;;;25.58;13.02;;;1.70;17.60;;;;;;5061670;28;20137;-65
2021/11/25 03:58:44;;;;;;;27.75;14.50;;;1.70;17.70;;;;;;5060163;28;20047;-66
2021/11/25 04:01:15;;;;;;;25.90;14.50;;;1.60;17.50;;;;;;5059421;28;20751;-65
2021/11/25 04:03:45;;;;;;;25.10;12.57;;;1.60;17.60;;;;;;5066672;28;20143;-65
2021/11/25 04:06:14;;;;;;;25.67;13.48;;;1.60;17.90;;;;;;5061722;28;20049;-65
2021/11/25 04:08:44;;;;;;;23.88;12.55;;;1.60;18.40;;;;;;5065134;28;20094;-64
2021/11/25 04:11:12;;;;;;;24.02;12.20;;;1.70;18.50;;;;;;5061735;28;20715;-65
2021/11/25 04:13:46;;;;;;;25.50;13.90;;;1.60;18.60;;;;;;5055566;28;20076;-65
2021/11/25 04:16:16;;;;;;;26.17;13.75;;;1.60;19.20;;;;;;5057833;28;20401;-63
2021/11/25 04:18:44;;;;;;;26.60;14.40;;;1.60;19.20;;;;;;5066323;28;20048;-63
2021/11/25 04:21:12;;;;;;;23.75;13.15;;;1.60;19.30;;;;;;5061468;28;20500;-64
2021/11/25 04:23:44;;;;;;;26.27;14.35;;;1.60;19.50;;;;;;5060476;28;20977;-65
2021/11/25 04:26:13;;;;;;;27.77;14.57;;;1.70;19.80;;;;;;5061892;28;20040;-64
2021/11/25 04:28:41;;;;;;;28.08;14.40;;;1.70;19.40;;;;;;5060033;28;20073;-64
2021/11/25 04:36:45;;;;;;;28.48;13.88;;;1.80;18.40;;;;;;5051998;28;20400;-65
2021/11/25 04:39:16;;;;;;;25.30;13.80;;;1.90;17.60;;;;;;5064786;28;20040;-65
2021/11/25 04:41:45;;;;;;;29.55;13.57;;;1.80;17.60;;;;;;5062495;28;20054;-65
2021/11/25 04:44:13;;;;;;;30.10;14.68;;;1.90;17.60;;;;;;5058488;28;20138;-65
2021/11/25 04:46:42;;;;;;;31.55;15.63;;;1.80;17.20;;;;;;5060354;28;20144;-63
2021/11/25 04:49:11;;;;;;;30.48;15.02;;;1.80;17.60;;;;;;5060405;28;20048;-64
2021/11/25 04:51:42;;;;;;;30.05;14.70;;;1.90;17.60;;;;;;5060803;28;20044;-64
2021/11/25 04:54:12;;;;;;;27.48;14.65;;;1.90;17.60;;;;;;5062158;28;20068;-64
2021/11/25 04:56:40;;;;;;;26.40;14.10;;;1.90;17.60;;;;;;5060069;28;20132;-64
2021/11/25 04:59:10;;;;;;;31.33;16.08;;;1.90;17.00;;;;;;5061681;28;20564;-64
2021/11/25 05:01:38;;;;;;;28.50;15.45;;;1.80;17.40;;;;;;5058944;28;20597;-64
2021/11/25 05:04:08;;;;;;;32.72;15.85;;;1.80;17.20;;;;;;5070897;28;20066;-64
2021/11/25 05:06:36;;;;;;;29.98;15.43;;;1.80;17.60;;;;;;5080465;28;20040;-63
2021/11/25 05:09:05;;;;;;;31.20;14.13;;;1.90;17.40;;;;;;5084563;28;20067;-65
2021/11/25 05:11:33;;;;;;;31.50;16.48;;;2.00;16.80;;;;;;5079609;28;20044;-65
2021/11/25 05:14:02;;;;;;;31.33;15.77;;;1.90;16.40;;;;;;5082968;28;20131;-64
2021/11/25 05:16:30;;;;;;;30.65;14.35;;;1.80;16.40;;;;;;5087185;28;20118;-64
2021/11/25 05:18:59;;;;;;;27.50;14.55;;;1.80;16.70;;;;;;5087297;28;20044;-64
2021/11/25 05:21:29;;;;;;;27.48;14.13;;;1.90;16.80;;;;;;5087773;28;20080;-64
2021/11/25 05:23:58;;;;;;;27.98;14.93;;;1.90;16.50;;;;;;5084289;28;20169;-65
2021/11/25 05:26:26;;;;;;;29.85;15.70;;;1.90;16.90;;;;;;5085686;28;20117;-63
2021/11/25 05:28:54;;;;;;;28.17;15.13;;;1.90;17.30;;;;;;5088791;28;20040;-64
2021/11/25 05:31:23;;;;;;;29.70;15.25;;;2.00;17.40;;;;;;5083433;28;20043;-65
2021/11/25 05:33:52;;;;;;;25.38;13.52;;;2.00;16.80;;;;;;5084663;28;20051;-66
2021/11/25 05:36:20;;;;;;;29.17;15.73;;;2.00;16.80;;;;;;5081542;28;20044;-65
2021/11/25 05:38:49;;;;;;;29.10;14.82;;;2.00;17.10;;;;;;5083507;28;20028;-66
2021/11/25 05:41:20;;;;;;;30.23;15.02;;;2.00;16.90;;;;;;5087418;28;20047;-66
2021/11/25 05:43:48;;;;;;;28.17;13.35;;;2.00;17.00;;;;;;5082535;28;20335;-65
2021/11/25 05:46:16;;;;;;;30.10;14.23;;;2.00;17.20;;;;;;5084635;28;20295;-65
2021/11/25 05:48:45;;;;;;;27.25;14.85;;;1.90;17.00;;;;;;5088360;28;20044;-63
2021/11/25 05:51:19;;;;;;;31.55;15.07;;;1.90;17.00;;;;;;5084824;28;20052;-65
2021/11/25 05:53:50;;;;;;;30.15;15.30;;;2.00;17.20;;;;;;5082884;28;20105;-65
2021/11/25 05:56:18;;;;;;;30.05;15.25;;;2.00;16.90;;;;;;5085346;28;20087;-65
2021/11/25 05:58:51;;;;;;;32.53;15.93;;;2.00;16.90;;;;;;5085700;28;20046;-65
2021/11/25 06:01:18;;;;;;;30.00;15.60;;;2.00;16.90;;;;;;5085937;28;20139;-65
2021/11/25 06:03:52;;;;;;;30.05;15.13;;;2.10;16.30;;;;;;5086676;28;20051;-64
2021/11/25 06:06:20;;;;;;;29.30;15.45;;;2.00;16.70;;;;;;5083832;28;20052;-65
2021/11/25 06:08:53;;;;;;;29.95;15.77;;;2.00;16.40;;;;;;5086629;28;20505;-65
2021/11/25 06:11:25;;;;;;;31.47;15.77;;;1.90;16.40;;;;;;5082605;28;20048;-66
2021/11/25 06:13:59;;;;;;;33.83;16.63;;;1.90;17.10;;;;;;5083345;28;20266;-65
2021/11/25 06:16:28;;;;;;;35.70;16.42;;;2.00;17.70;;;;;;5082971;28;20044;-63
2021/11/25 06:18:56;;;;;;;27.75;14.80;;;2.00;17.70;;;;;;5085934;28;20051;-65
2021/11/25 06:21:25;;;;;;;32.00;15.43;;;2.10;17.00;;;;;;5082195;28;20388;-64
2021/11/25 06:23:55;;;;;;;31.77;15.77;;;2.00;16.60;;;;;;5084767;28;20377;-66
2021/11/25 06:26:23;;;;;;;34.10;15.90;;;2.00;17.10;;;;;;5086780;28;20048;-65
2021/11/25 06:28:56;;;;;;;31.73;15.70;;;2.00;17.20;;;;;;5085166;28;20055;-64
2021/11/25 06:31:25;;;;;;;29.85;14.88;;;2.00;17.10;;;;;;5084370;28;20059;-65
2021/11/25 06:33:53;;;;;;;30.30;16.15;;;2.10;17.20;;;;;;5084771;28;20474;-65
2021/11/25 06:36:21;;;;;;;31.08;17.77;;;2.00;17.00;;;;;;5079983;28;20051;-64
2021/11/25 06:38:51;;;;;;;30.25;15.63;;;2.10;17.00;;;;;;5078706;28;20086;-65
2021/11/25 06:41:20;;;;;;;32.15;15.90;;;2.20;16.80;;;;;;5083575;28;20063;-64
2021/11/25 06:43:49;;;;;;;30.95;15.73;;;2.20;16.20;;;;;;5082219;28;20056;-65
2021/11/25 06:46:19;;;;;;;32.13;16.58;;;2.20;16.20;;;;;;5085131;28;20144;-65
2021/11/25 06:48:47;;;;;;;32.38;15.88;;;2.10;16.40;;;;;;5086721;28;20105;-65
2021/11/25 06:51:15;;;;;;;31.77;15.85;;;2.10;16.50;;;;;;5083898;28;20054;-65
2021/11/25 06:53:45;;;;;;;36.90;15.77;;;2.00;16.40;;;;;;5082434;28;20132;-65
2021/11/25 06:56:14;;;;;;;30.45;15.70;;;2.10;16.60;;;;;;5081443;28;20055;-65
2021/11/25 06:58:44;;;;;;;28.40;15.30;;;2.00;17.00;;;;;;5085391;28;20043;-65
2021/11/25 07:01:13;;;;;;;31.05;15.63;;;2.10;16.30;;;;;;5082463;28;20040;-66
2021/11/25 07:03:41;;;;;;;31.60;16.30;;;2.20;16.00;;;;;;5080910;28;20056;-66
2021/11/25 07:06:10;;;;;;;28.55;15.23;;;2.10;15.70;;;;;;5084010;28;20048;-66
2021/11/25 07:08:44;;;;;;;30.65;16.67;;;2.00;16.40;;;;;;5084526;28;20060;-65
2021/11/25 07:11:17;;;;;;;31.92;16.27;;;2.00;16.30;;;;;;5080802;28;20139;-66
2021/11/25 07:13:50;;;;;;;33.10;15.27;;;2.10;16.40;;;;;;5064538;28;20106;-65
2021/11/25 07:16:20;;;;;;;30.45;15.95;;;2.10;16.20;;;;;;5057054;28;20059;-65
2021/11/25 07:18:49;;;;;;;33.92;16.15;;;2.10;15.90;;;;;;5059714;28;20687;-66
2021/11/25 07:21:17;;;;;;;33.45;16.73;;;2.20;16.10;;;;;;5064616;28;20147;-66
2021/11/25 07:23:48;;;;;;;32.45;16.20;;;2.20;15.60;;;;;;5063495;28;20314;-66
2021/11/25 07:26:18;;;;;;;31.83;16.00;;;2.30;15.60;;;;;;5058864;28;20048;-65
2021/11/25 07:28:47;;;;;;;35.95;15.88;;;2.30;14.70;;;;;;5056429;28;20127;-66
2021/11/25 07:31:19;;;;;;;34.03;17.33;;;2.30;14.90;;;;;;5074851;28;20178;-64
2021/11/25 07:33:51;;;;;;;32.33;16.25;;;2.40;14.50;;;;;;5082843;28;20055;-65
2021/11/25 07:36:20;;;;;;;31.17;15.52;;;2.40;14.40;;;;;;5083960;28;20044;-65
2021/11/25 07:38:51;;;;;;;31.80;17.58;;;2.40;14.50;;;;;;5086091;28;20032;-65
2021/11/25 07:41:20;;;;;;;31.77;16.45;;;2.40;14.40;;;;;;5083714;28;20047;-64
2021/11/25 07:43:52;;;;;;;28.77;15.75;;;2.50;14.60;;;;;;5084634;28;20102;-65
2021/11/25 07:46:27;;;;;;;31.88;16.05;;;2.50;14.20;;;;;;5078389;28;20044;-64
2021/11/25 07:49:01;;;;;;;32.55;15.93;;;2.50;14.00;;;;;;5085255;28;20119;-65
2021/11/25 07:51:33;;;;;;;32.65;15.32;;;2.30;13.80;;;;;;5084152;28;20522;-65
2021/11/25 07:54:08;;;;;;;33.38;15.25;;;2.40;14.40;;;;;;5080927;28;20040;-65
2021/11/25 07:56:41;;;;;;;30.38;15.63;;;2.40;14.40;;;;;;5082961;28;20140;-68
2021/11/25 07:59:12;;;;;;;32.53;16.75;;;2.30;14.30;;;;;;5083788;28;20575;-65
2021/11/25 08:01:45;;;;;;;31.17;15.80;;;2.30;14.40;;;;;;5081805;28;20513;-64
2021/11/25 08:04:16;;;;;;;31.67;15.82;;;2.40;14.40;;;;;;5083324;28;20055;-65
2021/11/25 08:06:46;;;;;;;32.58;16.08;;;2.50;14.50;;;;;;5082910;28;20411;-66
2021/11/25 08:09:17;;;;;;;35.25;17.95;;;2.50;13.80;;;;;;5082521;28;20032;-65
2021/11/25 08:11:48;;;;;;;31.95;15.75;;;2.40;14.40;;;;;;5074491;28;20040;-64
2021/11/25 08:14:22;;;;;;;32.63;15.90;;;2.40;14.40;;;;;;5082339;28;20047;-65
2021/11/25 08:16:52;;;;;;;33.70;15.73;;;2.40;14.70;;;;;;5079348;28;20045;-65
2021/11/25 08:19:34;;;;;;;35.35;16.80;;;2.50;14.50;;;;;;5081973;28;20058;-65
2021/11/25 08:22:02;;;;;;;34.25;16.45;;;2.60;13.70;;;;;;5083218;28;20413;-64
2021/11/25 08:24:31;;;;;;;32.45;15.80;;;2.60;14.00;;;;;;5079604;28;20142;-66
2021/11/25 08:26:59;;;;;;;33.70;17.20;;;2.60;13.70;;;;;;5084343;28;20048;-65
2021/11/25 08:29:28;;;;;;;34.33;17.13;;;2.60;12.70;;;;;;5082119;28;20043;-66
2021/11/25 08:32:01;;;;;;;32.17;15.77;;;2.70;12.80;;;;;;5080234;28;20075;-65
2021/11/25 08:34:31;;;;;;;30.70;16.15;;;2.80;12.10;;;;;;5082952;28;20143;-64
2021/11/25 08:36:59;;;;;;;31.02;17.08;;;2.70;11.90;;;;;;5082372;28;20040;-65
2021/11/25 08:39:28;;;;;;;31.52;15.80;;;2.60;12.80;;;;;;5080865;28;20032;-65
2021/11/25 08:41:56;;;;;;;36.88;17.15;;;2.60;12.10;;;;;;5082018;28;20123;-65
2021/11/25 08:44:24;;;;;;;32.38;16.00;;;2.70;12.30;;;;;;5083173;28;20122;-66
2021/11/25 08:46:58;;;;;;;33.58;16.42;;;2.70;11.70;;;;;;5081896;28;20066;-65
2021/11/25 08:49:30;;;;;;;30.50;15.32;;;2.60;11.70;;;;;;5083177;28;20538;-64
2021/11/25 08:51:59;;;;;;;31.13;16.13;;;2.60;11.20;;;;;;5082154;28;20071;-65
2021/11/25 08:54:30;;;;;;;32.40;16.60;;;2.50;11.00;;;;;;5081850;28;20055;-66
2021/11/25 08:56:59;;;;;;;32.05;15.68;;;2.50;10.90;;;;;;5080240;28;20048;-66
2021/11/25 08:59:29;;;;;;;34.72;16.95;;;2.40;10.90;;;;;;5084485;28;20043;-65
2021/11/25 09:01:57;;;;;;;32.25;16.23;;;2.50;11.30;;;;;;5063649;28;20144;-65
2021/11/25 09:04:31;;;;;;;33.70;17.10;;;2.50;11.60;;;;;;5059519;28;20469;-65
2021/11/25 09:07:00;;;;;;;32.55;16.27;;;2.50;11.70;;;;;;5058996;28;20114;-65
2021/11/25 09:09:28;;;;;;;31.08;15.82;;;2.50;11.70;;;;;;5063358;28;20056;-64
2021/11/25 09:12:01;;;;;;;33.25;17.45;;;2.60;11.80;;;;;;5058772;28;20047;-66
2021/11/25 09:14:29;;;;;;;31.60;16.27;;;2.60;11.10;;;;;;5062135;28;20059;-66
2021/11/25 09:17:04;;;;;;;29.20;15.85;;;2.70;11.10;;;;;;5051368;28;20072;-66
2021/11/25 09:19:37;;;;;;;34.90;16.17;;;2.50;10.60;;;;;;5059179;28;20432;-66
2021/11/25 09:22:05;;;;;;;30.92;16.20;;;2.50;11.00;;;;;;5062543;28;20131;-65
2021/11/25 09:24:34;;;;;;;29.05;15.35;;;2.70;10.30;;;;;;5056978;28;20048;-66
2021/11/25 09:27:03;;;;;;;28.38;15.25;;;2.70;9.10;;;;;;5060387;28;20049;-65
2021/11/25 09:29:32;;;;;;;33.45;15.50;;;2.80;9.00;;;;;;5055406;28;20044;-64
2021/11/25 09:32:01;;;;;;;28.48;14.93;;;2.70;8.60;;;;;;5062089;28;20118;-64
2021/11/25 09:34:31;;;;;;;31.38;15.82;;;2.60;8.70;;;;;;5059967;28;20228;-65
2021/11/25 09:37:01;;;;;;;29.33;14.88;;;2.50;8.70;;;;;;5063294;28;20047;-65
2021/11/25 09:39:30;;;;;;;31.40;15.57;;;2.50;8.00;;;;;;5057967;28;20056;-64
2021/11/25 09:42:00;;;;;;;30.20;14.75;;;2.60;8.00;;;;;;5062099;28;20119;-66
2021/11/25 09:44:29;;;;;;;30.08;15.13;;;2.70;7.50;;;;;;5060121;28;20119;-65
2021/11/25 09:46:59;;;;;;;33.50;16.38;;;2.60;7.50;;;;;;5080892;28;20131;-65
2021/11/25 09:49:35;;;;;;;31.38;15.85;;;2.80;7.60;;;;;;5082741;28;20156;-64
2021/11/25 09:52:05;;;;;;;34.95;16.10;;;2.80;7.20;;;;;;5080979;28;20040;-66
2021/11/25 09:54:38;;;;;;;30.40;15.82;;;2.90;7.30;;;;;;5078371;28;20047;-65
2021/11/25 09:57:10;;;;;;;30.88;14.70;;;2.90;7.70;;;;;;5084255;28;20130;-64
2021/11/25 09:59:40;;;;;;;34.25;16.58;;;2.90;7.30;;;;;;5081342;28;20097;-65
2021/11/25 10:02:09;;;;;;;29.90;16.02;;;3.00;7.10;;;;;;5083866;28;20407;-64
2021/11/25 10:04:38;;;;;;;29.40;14.90;;;3.00;6.60;;;;;;5085900;28;20044;-64
2021/11/25 10:07:10;;;;;;;27.50;14.20;;;3.20;5.60;;;;;;5083458;28;20047;-65
2021/11/25 10:09:42;;;;;;;29.50;15.07;;;3.30;5.10;;;;;;5085831;28;20098;-65
2021/11/25 10:12:31;;;;;;;30.52;15.77;;;3.10;4.60;;;;;;5084923;28;20163;-64
2021/11/25 10:15:01;;;;;;;31.15;15.88;;;3.20;5.30;;;;;;5084438;28;20397;-64
2021/11/25 10:17:47;;;;;;;33.75;16.80;;;3.10;5.40;;;;;;5085586;28;20415;-64
2021/11/25 10:20:19;;;;;;;31.05;16.40;;;3.20;6.20;;;;;;5088627;28;20463;-64
2021/11/25 10:23:14;;;;;;;31.90;15.77;;;3.30;6.20;;;;;;5085096;28;20245;-65
2021/11/25 10:25:49;;;;;;;34.83;15.13;;;3.20;4.80;;;;;;5076364;28;20052;-63
2021/11/25 10:28:28;;;;;;;33.03;16.50;;;3.30;5.60;;;;;;5084927;28;20059;-65
2021/11/25 10:31:01;;;;;;;28.63;15.15;;;3.10;5.70;;;;;;5084475;28;20052;-64
2021/11/25 10:33:44;;;;;;;32.75;16.70;;;3.00;5.80;;;;;;5082693;28;20040;-65
2021/11/25 10:39:11;;;;;;;30.65;16.27;;;3.10;5.00;;;;;;5083871;28;20075;-64
2021/11/25 10:41:47;;;;;;;30.88;16.02;;;3.00;6.20;;;;;;5082898;28;20513;-64
2021/11/25 10:44:23;;;;;;;29.95;16.08;;;3.10;5.80;;;;;;5047996;28;20143;-64
2021/11/25 10:47:01;;;;;;;32.35;15.80;;;3.10;5.50;;;;;;5050172;28;20044;-64
2021/11/25 10:49:37;;;;;;;35.38;17.48;;;3.00;5.50;;;;;;5062834;28;20072;-64
2021/11/25 10:52:18;;;;;;;32.67;16.20;;;3.00;5.60;;;;;;5063594;28;20076;-64
2021/11/25 10:54:53;;;;;;;34.45;16.63;;;3.00;5.90;;;;;;5065992;28;20070;-64
2021/11/25 10:57:23;;;;;;;30.00;15.80;;;3.10;6.80;;;;;;5060859;28;20033;-64
2021/11/25 10:59:55;;;;;;;32.35;17.13;;;3.20;6.40;;;;;;5070626;28;20085;-64
2021/11/25 11:02:29;;;;;;;29.65;15.57;;;3.30;6.20;;;;;;5084037;28;20071;-64
2021/11/25 11:05:01;;;;;;;32.10;17.08;;;3.20;5.00;;;;;;5079090;28;20058;-64
2021/11/25 11:07:33;;;;;;;42.28;17.98;;;3.30;5.40;;;;;;5084848;28;20041;-64
2021/11/25 11:10:24;;;;;;;31.73;16.77;;;3.10;6.00;;;;;;5081864;28;20079;-64
2021/11/25 11:13:02;;;;;;;31.05;15.52;;;3.20;5.00;;;;;;5081033;28;20518;-64
2021/11/25 11:15:49;;;;;;;32.08;16.25;;;2.90;5.30;;;;;;5084249;28;20051;-64
2021/11/25 11:21:03;;;;;;;31.25;15.40;;;2.90;6.80;;;;;;5082654;28;20570;-64
2021/11/25 11:23:33;;;;;;;32.35;15.98;;;3.00;6.00;;;;;;5084011;28;20063;-69
2021/11/25 11:26:02;;;;;;;28.98;16.08;;;3.00;5.80;;;;;;5082372;28;20105;-65
2021/11/25 11:28:30;;;;;;;31.73;16.27;;;2.70;6.00;;;;;;5080353;28;20055;-64
2021/11/25 11:30:59;;;;;;;33.83;17.08;;;2.80;6.90;;;;;;5085673;28;20093;-65
2021/11/25 11:33:31;;;;;;;35.03;16.70;;;2.80;6.50;;;;;;5077505;28;20051;-64
2021/11/25 11:36:02;;;;;;;33.05;15.95;;;2.80;6.10;;;;;;5078410;28;20055;-64
2021/11/25 11:38:37;;;;;;;33.83;17.02;;;2.90;6.30;;;;;;5085003;28;20059;-65
2021/11/25 11:41:25;;;;;;;33.90;17.30;;;3.00;5.90;;;;;;5080858;28;20039;-65
2021/11/25 11:43:53;;;;;;;33.42;15.85;;;2.90;6.00;;;;;;5076205;28;20155;-64
2021/11/25 11:46:21;;;;;;;31.27;17.15;;;2.90;5.70;;;;;;5084535;28;20121;-65
2021/11/25 11:48:53;;;;;;;31.48;16.55;;;2.90;6.20;;;;;;5086026;28;20048;-65
2021/11/25 11:51:22;;;;;;;33.00;16.60;;;2.80;6.50;;;;;;5081555;28;20044;-65
2021/11/25 11:53:54;;;;;;;34.67;16.88;;;2.90;6.80;;;;;;5082849;28;20150;-63
2021/11/25 11:56:40;;;;;;;28.55;15.40;;;2.90;6.10;;;;;;5091814;28;20059;-65
2021/11/25 11:59:15;;;;;;;33.97;16.52;;;3.10;6.30;;;;;;5056352;28;20052;-65
2021/11/25 12:01:52;;;;;;;32.85;17.63;;;3.00;6.40;;;;;;5063912;28;20037;-64
2021/11/25 12:04:25;;;;;;;30.92;16.35;;;3.00;6.60;;;;;;5054650;28;20063;-64
2021/11/25 12:06:57;;;;;;;35.88;16.45;;;2.90;6.40;;;;;;5059078;28;20084;-65
2021/11/25 12:09:35;;;;;;;31.63;16.05;;;2.90;7.00;;;;;;5067215;28;20044;-65
2021/11/25 12:12:14;;;;;;;38.33;18.00;;;3.00;6.90;;;;;;5054506;28;20140;-66
2021/11/25 12:14:51;;;;;;;33.05;16.95;;;2.90;7.10;;;;;;5053956;28;20124;-65
2021/11/25 12:17:33;;;;;;;31.95;15.68;;;2.90;6.70;;;;;;5062334;28;20064;-64
2021/11/25 12:20:20;;;;;;;33.95;17.02;;;2.80;7.60;;;;;;5058804;28;20162;-65
2021/11/25 12:22:50;;;;;;;36.20;16.52;;;2.90;7.00;;;;;;5051155;28;20040;-64
2021/11/25 12:25:34;;;;;;;31.08;16.15;;;2.90;7.40;;;;;;5057729;28;20045;-65
2021/11/25 12:28:21;;;;;;;34.92;17.27;;;2.90;6.50;;;;;;5016976;28;20109;-64
2021/11/25 12:30:57;;;;;;;30.25;16.70;;;2.90;6.90;;;;;;5059093;28;20044;-65
2021/11/25 12:33:40;;;;;;;34.42;16.75;;;2.90;7.30;;;;;;5060992;28;20041;-64
2021/11/25 12:36:09;;;;;;;31.48;16.73;;;2.80;7.60;;;;;;5045458;28;20143;-65
2021/11/25 12:38:39;;;;;;;33.50;16.02;;;2.80;7.60;;;;;;5063266;28;20429;-64
2021/11/25 12:41:09;;;;;;;30.42;16.08;;;2.70;7.50;;;;;;5057515;28;20171;-65
2021/11/25 12:43:42;;;;;;;32.22;15.43;;;2.80;7.60;;;;;;5067197;28;20095;-64
2021/11/25 12:46:16;;;;;;;35.55;16.20;;;2.90;7.60;;;;;;5082919;28;20046;-64
2021/11/25 12:48:52;;;;;;;29.83;15.27;;;2.80;6.20;;;;;;5082470;28;20051;-64
2021/11/25 12:51:22;;;;;;;32.47;16.58;;;2.80;6.80;;;;;;5079997;28;20480;-66
2021/11/25 12:53:52;;;;;;;31.13;15.60;;;2.80;7.20;;;;;;5084066;28;20122;-65
2021/11/25 12:56:27;;;;;;;34.05;16.50;;;2.80;7.00;;;;;;5064950;28;20040;-65
2021/11/25 12:58:59;;;;;;;33.53;16.15;;;2.80;6.00;;;;;;5059054;28;20529;-64
2021/11/25 13:01:37;;;;;;;30.40;16.08;;;2.90;6.50;;;;;;5055212;28;20033;-63
2021/11/25 13:04:10;;;;;;;30.45;15.52;;;2.80;6.90;;;;;;5059455;28;20571;-65
2021/11/25 13:06:42;;;;;;;32.10;16.23;;;2.70;6.20;;;;;;5060355;28;20097;-65
2021/11/25 13:09:17;;;;;;;29.73;15.48;;;2.70;6.30;;;;;;5083029;28;20082;-63
2021/11/25 13:11:50;;;;;;;30.23;15.40;;;2.60;6.80;;;;;;5065029;28;20051;-65